createdAt,value
2018-07-21T00:02:25.146Z,90.70
2018-07-21T00:04:54.506Z,90.40
2018-07-21T00:07:24.090Z,89.90
2018-07-21T00:12:22.283Z,87.40
2018-07-21T00:14:52.192Z,86.20
2018-07-21T00:17:21.959Z,84.90
2018-07-21T00:19:51.679Z,84.20
2018-07-21T00:22:20.904Z,83.70
2018-07-21T00:27:18.887Z,83.00
2018-07-21T00:29:48.095Z,83.50
2018-07-21T00:32:17.339Z,82.40
2018-07-21T00:34:46.512Z,82.10
2018-07-21T00:37:15.858Z,81.70
2018-07-21T00:39:45.104Z,81.50
2018-07-21T00:42:14.348Z,81.40
2018-07-21T00:44:43.676Z,81.40
2018-07-21T00:47:13.011Z,81.40
2018-07-21T00:49:42.297Z,81.30
2018-07-21T00:52:13.040Z,81.90
2018-07-21T00:54:42.284Z,80.90
2018-07-21T00:57:11.595Z,80.90
2018-07-21T01:02:15.638Z,80.60
2018-07-21T01:04:44.848Z,81.30
2018-07-21T01:07:14.162Z,80.10
2018-07-21T01:09:43.487Z,80.00
2018-07-21T01:12:12.749Z,79.80
2018-07-21T01:14:42.048Z,79.70
2018-07-21T01:17:11.316Z,79.70
2018-07-21T01:19:40.766Z,79.40
2018-07-21T01:22:11.260Z,80.00
2018-07-21T01:24:40.622Z,79.00
2018-07-21T01:27:09.908Z,78.70
2018-07-21T01:29:39.111Z,78.50
2018-07-21T01:32:08.416Z,78.30
2018-07-21T01:34:37.646Z,78.20
2018-07-21T01:37:06.847Z,78.00
2018-07-21T01:39:36.068Z,77.80
2018-07-21T01:42:05.256Z,77.60
2018-07-21T01:44:34.509Z,77.30
2018-07-21T01:49:32.523Z,77.90
2018-07-21T01:52:01.871Z,76.70
2018-07-21T01:54:31.135Z,76.50
2018-07-21T01:59:29.314Z,76.70
2018-07-21T02:01:58.694Z,78.70
2018-07-21T02:04:27.976Z,80.60
2018-07-21T02:06:57.384Z,82.00
2018-07-21T02:09:26.803Z,83.00
2018-07-21T02:11:56.344Z,83.80
2018-07-21T02:14:26.909Z,84.30
2018-07-21T02:17:00.063Z,84.70
2018-07-21T02:19:29.314Z,85.10
2018-07-21T02:21:58.659Z,85.40
2018-07-21T02:24:31.377Z,85.80
2018-07-21T02:27:00.715Z,86.10
2018-07-21T02:29:30.092Z,86.60
2018-07-21T02:31:59.959Z,86.80
2018-07-21T02:34:30.618Z,87.10
2018-07-21T02:37:01.303Z,87.10
2018-07-21T02:39:30.680Z,87.10
2018-07-21T02:41:59.993Z,87.80
2018-07-21T02:44:29.531Z,88.00
2018-07-21T02:46:59.969Z,88.40
2018-07-21T02:49:29.263Z,88.50
2018-07-21T02:51:58.735Z,88.70
2018-07-21T02:54:28.386Z,88.80
2018-07-21T02:56:57.771Z,89.00
2018-07-21T02:59:27.664Z,89.00
2018-07-21T03:01:57.407Z,89.10
2018-07-21T03:04:28.332Z,89.20
2018-07-21T03:07:02.440Z,89.20
2018-07-21T03:09:31.693Z,89.10
2018-07-21T03:12:00.966Z,89.10
2018-07-21T03:14:32.407Z,89.10
2018-07-21T03:17:01.735Z,89.00
2018-07-21T03:19:31.600Z,88.70
2018-07-21T03:22:00.988Z,88.40
2018-07-21T03:24:30.484Z,88.00
2018-07-21T03:26:59.701Z,87.70
2018-07-21T03:29:29.135Z,87.50
2018-07-21T03:31:58.581Z,88.00
2018-07-21T03:34:28.707Z,88.10
2018-07-21T03:36:58.174Z,88.40
2018-07-21T03:39:27.655Z,88.50
2018-07-21T03:41:57.149Z,88.60
2018-07-21T03:44:26.463Z,88.90
2018-07-21T03:46:56.655Z,89.10
2018-07-21T03:49:25.871Z,89.20
2018-07-21T03:51:55.207Z,90.00
2018-07-21T03:54:26.707Z,89.70
2018-07-21T03:56:56.455Z,90.00
2018-07-21T03:59:25.686Z,89.80
2018-07-21T04:01:54.780Z,89.90
2018-07-21T04:04:23.786Z,90.00
2018-07-21T04:06:52.745Z,90.00
2018-07-21T04:09:21.741Z,90.10
2018-07-21T04:11:50.715Z,90.20
2018-07-21T04:14:19.702Z,90.40
2018-07-21T04:16:49.038Z,90.50
2018-07-21T04:19:19.929Z,90.60
2018-07-21T04:21:48.965Z,90.60
2018-07-21T04:24:18.077Z,90.70
2018-07-21T04:26:47.118Z,90.80
2018-07-21T04:29:16.255Z,90.80
2018-07-21T04:31:45.466Z,90.80
2018-07-21T04:34:14.774Z,90.80
2018-07-21T04:36:44.025Z,90.80
2018-07-21T04:39:13.283Z,90.90
2018-07-21T04:41:42.771Z,90.90
2018-07-21T04:44:12.213Z,91.00
2018-07-21T04:46:41.583Z,90.80
2018-07-21T04:49:10.856Z,91.20
2018-07-21T04:51:40.125Z,91.10
2018-07-21T04:54:09.424Z,91.10
2018-07-21T04:56:38.619Z,91.10
2018-07-21T04:59:07.955Z,91.20
2018-07-21T05:01:37.201Z,91.20
2018-07-21T05:04:06.422Z,91.30
2018-07-21T05:06:35.752Z,91.30
2018-07-21T05:09:07.078Z,91.30
2018-07-21T05:11:36.518Z,91.20
2018-07-21T05:14:06.267Z,91.60
2018-07-21T05:16:35.596Z,91.20
2018-07-21T05:19:04.886Z,91.70
2018-07-21T05:21:34.103Z,91.40
2018-07-21T05:24:04.132Z,91.60
2018-07-21T05:26:33.611Z,91.60
2018-07-21T05:29:02.923Z,91.60
2018-07-21T05:31:32.139Z,91.80
2018-07-21T05:34:07.775Z,92.10
2018-07-21T05:36:37.051Z,92.20
2018-07-21T05:39:10.148Z,91.90
2018-07-21T05:41:39.654Z,92.00
2018-07-21T05:44:08.889Z,92.00
2018-07-21T05:46:38.311Z,92.00
2018-07-21T05:49:07.808Z,92.10
2018-07-21T05:51:37.074Z,92.10
2018-07-21T05:54:06.444Z,92.20
2018-07-21T05:56:35.795Z,92.20
2018-07-21T05:59:05.040Z,92.30
2018-07-21T06:01:34.315Z,92.30
2018-07-21T06:04:03.512Z,92.60
2018-07-21T06:06:32.940Z,92.30
2018-07-21T06:09:04.614Z,92.30
2018-07-21T06:11:33.839Z,92.30
2018-07-21T06:14:03.063Z,92.30
2018-07-21T06:16:32.375Z,92.20
2018-07-21T06:19:02.083Z,92.20
2018-07-21T06:21:32.563Z,92.10
2018-07-21T06:24:01.836Z,92.10
2018-07-21T06:26:31.407Z,92.10
2018-07-21T06:29:00.756Z,92.10
2018-07-21T06:31:30.251Z,92.20
2018-07-21T06:33:59.642Z,92.10
2018-07-21T06:36:29.109Z,92.20
2018-07-21T06:38:58.470Z,92.10
2018-07-21T06:41:27.742Z,92.00
2018-07-21T06:43:57.143Z,92.00
2018-07-21T06:46:26.411Z,92.00
2018-07-21T06:48:55.754Z,92.00
2018-07-21T06:51:25.370Z,92.20
2018-07-21T06:53:54.616Z,92.20
2018-07-21T06:56:24.176Z,92.20
2018-07-21T06:58:53.427Z,92.30
2018-07-21T07:01:22.679Z,92.30
2018-07-21T07:03:52.171Z,92.40
2018-07-21T07:06:21.427Z,92.40
2018-07-21T07:08:50.562Z,92.40
2018-07-21T07:11:19.747Z,92.40
2018-07-21T07:13:49.058Z,92.50
2018-07-21T07:16:18.657Z,92.40
2018-07-21T07:18:48.391Z,92.30
2018-07-21T07:21:17.627Z,92.20
2018-07-21T07:23:47.147Z,92.20
2018-07-21T07:26:16.435Z,92.10
2018-07-21T07:28:45.663Z,92.00
2018-07-21T07:31:14.959Z,92.00
2018-07-21T07:33:44.303Z,91.90
2018-07-21T07:36:13.628Z,92.20
2018-07-21T07:38:42.879Z,91.80
2018-07-21T07:41:12.327Z,91.70
2018-07-21T07:43:41.750Z,91.50
2018-07-21T07:46:11.750Z,91.30
2018-07-21T07:48:41.706Z,91.20
2018-07-21T07:51:11.221Z,91.20
2018-07-21T07:53:40.540Z,91.00
2018-07-21T07:56:09.799Z,91.30
2018-07-21T07:58:39.066Z,91.00
2018-07-21T08:01:08.921Z,90.90
2018-07-21T08:03:38.264Z,90.90
2018-07-21T08:06:08.371Z,90.90
2018-07-21T08:08:37.705Z,90.90
2018-07-21T08:11:07.048Z,90.90
2018-07-21T08:13:36.257Z,90.90
2018-07-21T08:16:06.155Z,91.00
2018-07-21T08:18:37.944Z,91.00
2018-07-21T08:21:07.373Z,91.20
2018-07-21T08:23:36.662Z,91.20
2018-07-21T08:26:06.215Z,91.30
2018-07-21T08:28:35.388Z,91.40
2018-07-21T08:31:05.558Z,91.40
2018-07-21T08:33:34.960Z,91.50
2018-07-21T08:36:04.196Z,91.60
2018-07-21T08:38:33.487Z,91.60
2018-07-21T08:41:02.704Z,91.70
2018-07-21T08:43:37.061Z,91.80
2018-07-21T08:46:06.678Z,92.20
2018-07-21T08:48:35.919Z,91.90
2018-07-21T08:51:05.162Z,92.00
2018-07-21T08:53:34.551Z,91.90
2018-07-21T08:56:04.010Z,91.90
2018-07-21T08:58:33.342Z,91.80
2018-07-21T09:01:02.615Z,92.20
2018-07-21T09:03:31.919Z,91.80
2018-07-21T09:06:01.287Z,91.80
2018-07-21T09:10:59.251Z,91.90
2018-07-21T09:13:28.500Z,92.00
2018-07-21T09:15:57.730Z,92.00
2018-07-21T09:18:26.987Z,92.00
2018-07-21T09:20:56.218Z,92.10
2018-07-21T09:23:25.485Z,92.10
2018-07-21T09:25:54.979Z,92.20
2018-07-21T09:28:24.247Z,92.30
2018-07-21T09:30:55.014Z,92.40
2018-07-21T09:33:24.211Z,92.40
2018-07-21T09:35:53.495Z,92.60
2018-07-21T09:38:22.719Z,92.60
2018-07-21T09:40:51.953Z,92.60
2018-07-21T09:43:22.215Z,92.70
2018-07-21T09:45:51.446Z,92.80
2018-07-21T09:48:20.687Z,92.80
2018-07-21T09:50:50.186Z,92.90
2018-07-21T09:53:19.407Z,92.90
2018-07-21T09:55:48.690Z,92.90
2018-07-21T09:58:18.646Z,93.00
2018-07-21T10:00:53.000Z,93.00
2018-07-21T10:03:22.320Z,93.10
2018-07-21T10:05:51.555Z,93.10
2018-07-21T10:08:20.839Z,93.10
2018-07-21T10:10:50.099Z,93.10
2018-07-21T10:13:19.655Z,93.10
2018-07-21T10:15:49.149Z,93.00
2018-07-21T10:18:18.451Z,93.00
2018-07-21T10:20:47.727Z,93.00
2018-07-21T10:23:17.054Z,93.00
2018-07-21T10:25:51.579Z,93.00
2018-07-21T10:28:26.041Z,93.00
2018-07-21T10:30:55.223Z,93.10
2018-07-21T10:33:24.752Z,93.20
2018-07-21T10:35:56.561Z,93.30
2018-07-21T10:38:27.538Z,93.30
2018-07-21T10:40:56.834Z,93.40
2018-07-21T10:43:28.495Z,93.40
2018-07-21T10:45:57.973Z,93.40
2018-07-21T10:48:27.256Z,93.50
2018-07-21T10:50:57.177Z,93.50
2018-07-21T10:53:26.529Z,93.50
2018-07-21T10:55:55.932Z,93.50
2018-07-21T10:58:25.273Z,93.50
2018-07-21T11:00:54.950Z,93.50
2018-07-21T11:03:25.052Z,93.60
2018-07-21T11:05:54.451Z,93.50
2018-07-21T11:08:23.969Z,93.60
2018-07-21T11:10:53.368Z,93.60
2018-07-21T11:13:22.676Z,93.60
2018-07-21T11:15:51.980Z,93.60
2018-07-21T11:18:21.682Z,93.60
2018-07-21T11:20:51.745Z,93.60
2018-07-21T11:23:22.266Z,93.60
2018-07-21T11:25:51.919Z,93.50
2018-07-21T11:28:21.223Z,93.60
2018-07-21T11:30:50.517Z,93.60
2018-07-21T11:33:19.690Z,93.90
2018-07-21T11:35:49.103Z,93.60
2018-07-21T11:38:18.248Z,93.70
2018-07-21T11:40:47.479Z,93.60
2018-07-21T11:43:16.769Z,93.70
2018-07-21T11:45:46.030Z,93.90
2018-07-21T11:50:44.230Z,93.60
2018-07-21T11:53:31.261Z,93.70
2018-07-21T11:56:00.456Z,93.70
2018-07-21T11:58:29.692Z,93.70
2018-07-21T12:00:58.915Z,93.60
2018-07-21T12:03:28.099Z,93.60
2018-07-21T12:05:57.377Z,93.70
2018-07-21T12:08:26.639Z,93.70
2018-07-21T12:10:55.967Z,93.70
2018-07-21T12:13:25.305Z,93.70
2018-07-21T12:15:54.608Z,93.70
2018-07-21T12:18:23.907Z,93.70
2018-07-21T12:20:53.288Z,93.70
2018-07-21T12:23:22.742Z,93.60
2018-07-21T12:25:52.443Z,93.60
2018-07-21T12:28:21.804Z,93.60
2018-07-21T12:30:51.018Z,93.60
2018-07-21T12:33:20.671Z,93.60
2018-07-21T12:35:50.333Z,93.50
2018-07-21T12:38:19.552Z,93.50
2018-07-21T12:40:48.787Z,93.60
2018-07-21T12:43:18.284Z,93.60
2018-07-21T12:45:47.863Z,93.60
2018-07-21T12:48:17.027Z,93.50
2018-07-21T12:50:46.299Z,93.60
2018-07-21T12:53:16.199Z,93.50
2018-07-21T12:55:55.435Z,93.50
2018-07-21T12:58:24.729Z,93.50
2018-07-21T13:00:54.040Z,93.60
2018-07-21T13:03:23.590Z,93.60
2018-07-21T13:05:52.944Z,93.60
2018-07-21T13:08:22.302Z,93.60
2018-07-21T13:10:51.752Z,93.60
2018-07-21T13:13:20.963Z,93.60
2018-07-21T13:15:50.248Z,93.60
2018-07-21T13:18:19.515Z,93.60
2018-07-21T13:20:48.757Z,93.50
2018-07-21T13:23:17.960Z,93.50
2018-07-21T13:25:47.298Z,93.50
2018-07-21T13:28:17.000Z,93.50
2018-07-21T13:30:46.243Z,93.50
2018-07-21T13:33:15.586Z,93.50
2018-07-21T13:35:44.836Z,93.60
2018-07-21T13:38:14.124Z,93.60
2018-07-21T13:40:43.444Z,93.60
2018-07-21T13:43:12.690Z,93.60
2018-07-21T13:45:41.910Z,93.60
2018-07-21T13:48:11.170Z,93.60
2018-07-21T13:50:40.481Z,93.60
2018-07-21T13:53:09.700Z,93.60
2018-07-21T13:55:39.146Z,93.60
2018-07-21T13:58:09.925Z,93.70
2018-07-21T14:00:40.425Z,93.70
2018-07-21T14:03:09.788Z,93.70
2018-07-21T14:05:39.000Z,93.70
2018-07-21T14:08:08.298Z,93.60
2018-07-21T14:10:38.033Z,93.70
2018-07-21T14:13:07.924Z,93.70
2018-07-21T14:15:40.517Z,93.70
2018-07-21T14:18:10.329Z,93.70
2018-07-21T14:20:40.276Z,93.70
2018-07-21T14:23:10.004Z,93.70
2018-07-21T14:25:41.131Z,93.70
2018-07-21T14:28:12.891Z,93.70
2018-07-21T14:30:42.616Z,93.80
2018-07-21T14:33:11.987Z,93.80
2018-07-21T14:35:41.386Z,93.80
2018-07-21T14:38:10.721Z,93.90
2018-07-21T14:40:40.912Z,93.80
2018-07-21T14:43:10.247Z,93.80
2018-07-21T14:45:41.088Z,93.80
2018-07-21T14:48:11.039Z,93.80
2018-07-21T14:50:40.342Z,93.80
2018-07-21T14:53:09.577Z,93.80
2018-07-21T14:55:38.795Z,93.80
2018-07-21T14:58:08.043Z,93.80
2018-07-21T15:00:37.371Z,93.80
2018-07-21T15:03:06.730Z,93.80
2018-07-21T15:05:36.055Z,93.80
2018-07-21T15:08:05.363Z,93.80
2018-07-21T15:13:04.391Z,93.90
2018-07-21T15:15:33.678Z,93.80
2018-07-21T15:18:02.924Z,93.90
2018-07-21T15:20:32.568Z,93.90
2018-07-21T15:23:04.867Z,93.90
2018-07-21T15:25:36.248Z,93.80
2018-07-21T15:28:06.710Z,93.80
2018-07-21T15:30:37.338Z,93.90
2018-07-21T15:33:08.373Z,93.90
2018-07-21T15:35:38.702Z,93.90
2018-07-21T15:38:09.367Z,93.80
2018-07-21T15:40:38.900Z,93.80
2018-07-21T15:43:08.243Z,93.80
2018-07-21T15:45:37.481Z,93.80
2018-07-21T15:48:06.831Z,93.80
2018-07-21T15:50:36.119Z,93.80
2018-07-21T15:53:06.289Z,93.80
2018-07-21T15:55:35.854Z,93.80
2018-07-21T15:58:05.555Z,93.80
2018-07-21T16:00:36.236Z,93.80
2018-07-21T16:03:08.896Z,93.80
2018-07-21T16:05:38.862Z,93.80
2018-07-21T16:08:10.652Z,93.80
2018-07-21T16:10:41.110Z,93.80
2018-07-21T16:13:11.344Z,93.70
2018-07-21T16:15:41.791Z,93.70
2018-07-21T16:18:12.573Z,93.60
2018-07-21T16:20:43.160Z,93.60
2018-07-21T16:23:13.025Z,93.60
2018-07-21T16:25:44.143Z,93.60
2018-07-21T16:28:14.063Z,93.60
2018-07-21T16:30:44.869Z,93.60
2018-07-21T16:33:16.990Z,93.60
2018-07-21T16:35:47.166Z,93.60
2018-07-21T16:38:17.102Z,93.60
2018-07-21T16:40:46.941Z,93.70
2018-07-21T16:43:17.102Z,93.70
2018-07-21T16:45:51.527Z,93.70
2018-07-21T16:48:21.130Z,93.70
2018-07-21T16:50:51.476Z,93.70
2018-07-21T16:53:21.099Z,93.70
2018-07-21T16:55:51.104Z,93.70
2018-07-21T16:58:21.513Z,93.70
2018-07-21T17:00:53.135Z,93.70
2018-07-21T17:03:25.835Z,93.70
2018-07-21T17:05:55.761Z,93.70
2018-07-21T17:08:26.283Z,93.70
2018-07-21T17:10:55.730Z,93.70
2018-07-21T17:13:25.065Z,93.80
2018-07-21T17:15:54.519Z,93.80
2018-07-21T17:18:24.098Z,93.80
2018-07-21T17:20:53.803Z,93.80
2018-07-21T17:23:30.897Z,93.80
2018-07-21T17:26:02.020Z,93.90
2018-07-21T17:28:32.431Z,93.90
2018-07-21T17:31:01.811Z,93.90
2018-07-21T17:33:31.554Z,93.90
2018-07-21T17:36:01.419Z,93.90
2018-07-21T17:38:30.868Z,93.90
2018-07-21T17:41:00.247Z,93.90
2018-07-21T17:43:29.535Z,93.90
2018-07-21T17:45:58.801Z,93.90
2018-07-21T17:48:28.360Z,93.90
2018-07-21T17:50:57.608Z,93.80
2018-07-21T17:53:26.765Z,93.80
2018-07-21T17:55:56.333Z,93.90
2018-07-21T17:58:25.663Z,93.90
2018-07-21T18:00:54.879Z,93.90
2018-07-21T18:03:24.603Z,93.90
2018-07-21T18:05:53.988Z,93.90
2018-07-21T18:08:23.360Z,93.80
2018-07-21T18:10:53.065Z,93.90
2018-07-21T18:13:22.679Z,93.90
2018-07-21T18:18:20.835Z,93.90
2018-07-21T18:20:50.148Z,94.00
2018-07-21T18:23:19.431Z,94.00
2018-07-21T18:25:48.730Z,94.00
2018-07-21T18:28:18.035Z,94.30
2018-07-21T18:30:50.042Z,94.00
2018-07-21T18:33:19.494Z,94.10
2018-07-21T18:35:48.815Z,94.10
2018-07-21T18:38:18.166Z,94.10
2018-07-21T18:40:47.515Z,94.10
2018-07-21T18:43:18.499Z,94.10
2018-07-21T18:45:48.627Z,94.10
2018-07-21T18:48:18.250Z,94.20
2018-07-21T18:50:47.587Z,94.20
2018-07-21T18:53:16.836Z,94.20
2018-07-21T18:55:46.133Z,94.20
2018-07-21T18:58:15.511Z,94.30
2018-07-21T19:00:44.832Z,94.50
2018-07-21T19:03:13.953Z,94.20
2018-07-21T19:05:43.336Z,94.30
2018-07-21T19:08:17.543Z,94.30
2018-07-21T19:10:46.847Z,94.30
2018-07-21T19:13:16.081Z,94.30
2018-07-21T19:15:50.315Z,94.40
2018-07-21T19:18:19.755Z,94.30
2018-07-21T19:20:54.125Z,94.40
2018-07-21T19:23:23.375Z,94.40
2018-07-21T19:26:04.050Z,94.40
2018-07-21T19:28:33.312Z,94.40
2018-07-21T19:34:00.223Z,94.50
2018-07-21T19:36:29.463Z,94.50
2018-07-21T19:38:58.777Z,94.50
2018-07-21T19:41:33.087Z,94.50
2018-07-21T19:44:02.479Z,94.60
2018-07-21T19:46:31.717Z,94.60
2018-07-21T19:49:11.243Z,94.60
2018-07-21T19:51:40.482Z,94.60
2018-07-21T19:54:09.708Z,94.60
2018-07-21T19:56:38.972Z,94.60
2018-07-21T19:59:08.073Z,94.60
2018-07-21T20:01:37.299Z,94.60
2018-07-21T20:04:06.668Z,94.60
2018-07-21T20:06:35.963Z,94.60
2018-07-21T20:09:06.565Z,94.60
2018-07-21T20:11:35.867Z,94.60
2018-07-21T20:14:05.106Z,94.60
2018-07-21T20:16:34.461Z,94.60
2018-07-21T20:19:04.451Z,94.60
2018-07-21T20:21:33.842Z,94.60
2018-07-21T20:24:03.062Z,94.60
2018-07-21T20:26:32.440Z,94.60
2018-07-21T20:29:01.696Z,94.60
2018-07-21T20:31:31.029Z,94.60
2018-07-21T20:34:01.369Z,94.60
2018-07-21T20:36:30.840Z,94.60
2018-07-21T20:39:00.269Z,94.60
2018-07-21T20:43:58.371Z,94.60
2018-07-21T20:46:28.044Z,94.60
2018-07-21T20:48:57.330Z,94.60
2018-07-21T20:51:26.695Z,94.60
2018-07-21T20:53:56.423Z,94.60
2018-07-21T20:56:31.274Z,94.60
2018-07-21T20:59:00.691Z,94.60
2018-07-21T21:01:30.121Z,94.70
2018-07-21T21:03:59.390Z,94.70
2018-07-21T21:06:29.143Z,94.70
2018-07-21T21:08:58.396Z,94.70
2018-07-21T21:11:27.707Z,94.70
2018-07-21T21:13:56.916Z,94.80
2018-07-21T21:18:54.830Z,94.80
2018-07-21T21:21:24.079Z,94.80
2018-07-21T21:23:53.295Z,94.80
2018-07-21T21:26:22.675Z,94.80
2018-07-21T21:28:51.870Z,94.80
2018-07-21T21:31:21.113Z,94.80
2018-07-21T21:33:50.315Z,94.80
2018-07-21T21:36:19.564Z,94.80
2018-07-21T21:38:48.927Z,94.90
2018-07-21T21:41:19.225Z,94.90
2018-07-21T21:43:48.775Z,95.00
2018-07-21T21:48:46.730Z,95.00
2018-07-21T21:51:16.433Z,94.90
2018-07-21T21:53:45.893Z,94.90
2018-07-21T21:56:15.688Z,95.00
2018-07-21T21:58:45.085Z,95.40
2018-07-21T22:01:15.005Z,94.90
2018-07-21T22:03:44.631Z,94.90
2018-07-21T22:06:14.743Z,95.00
2018-07-21T22:08:44.283Z,95.00
2018-07-21T22:11:13.575Z,94.90
2018-07-21T22:13:42.943Z,95.00
2018-07-21T22:16:12.479Z,95.00
2018-07-21T22:18:42.040Z,95.00
2018-07-21T22:23:40.047Z,95.00
2018-07-21T22:26:09.244Z,95.00
2018-07-21T22:28:38.403Z,95.00
2018-07-21T22:31:07.744Z,95.00
2018-07-21T22:33:37.003Z,95.00
2018-07-21T22:36:06.366Z,95.00
2018-07-21T22:38:35.548Z,95.00
2018-07-21T22:41:04.715Z,95.00
2018-07-21T22:43:33.932Z,95.10
2018-07-21T22:46:03.152Z,95.10
2018-07-21T22:48:32.389Z,95.10
2018-07-21T22:51:01.583Z,95.10
2018-07-21T22:53:30.772Z,95.10
2018-07-21T22:56:00.079Z,95.10
2018-07-21T22:58:29.296Z,95.10
2018-07-21T23:00:58.517Z,95.10
2018-07-21T23:03:27.755Z,95.40
2018-07-21T23:05:56.967Z,95.10
2018-07-21T23:08:26.205Z,95.40
2018-07-21T23:10:55.450Z,95.10
2018-07-21T23:13:24.656Z,95.10
2018-07-21T23:15:53.943Z,95.10
2018-07-21T23:18:23.250Z,95.10
2018-07-21T23:20:52.495Z,95.10
2018-07-21T23:23:21.727Z,95.10
2018-07-21T23:28:19.827Z,95.20
2018-07-21T23:30:49.687Z,95.10
2018-07-21T23:33:19.028Z,95.10
2018-07-21T23:35:48.336Z,95.10
2018-07-21T23:38:17.662Z,95.10
2018-07-21T23:40:46.843Z,95.10
2018-07-21T23:43:16.087Z,95.10
2018-07-21T23:45:45.262Z,95.10
2018-07-21T23:48:14.540Z,95.10
2018-07-21T23:50:43.750Z,95.00
2018-07-21T23:53:13.484Z,95.40
2018-07-21T23:55:42.643Z,95.00
2018-07-21T23:58:11.830Z,95.00
